Terminal Aerodrome Forecast
Issued by NWS Boston, MA

Home | Current Version | Previous Version | Text Only | Print | Product List | Glossary On
Versions: 1 2 3 4 5 6 7 8 9 10 11 12 13 14 15 16 17 18 19 20 21 22 23 24 25 26 27 28 29 30 31 32 33 34 35 36 37 38 39 40 41 42 43 44 45 46 47 48
000
FTUS41 KBOX 040200 AAA
TAFBDL
TAF AMD
KBDL 040200Z 0402/0506 34004KT P6SM FEW015 OVC050
     FM040600 00000KT P6SM OVC015
     FM041400 05005KT P6SM VCSH OVC025
     FM042200 04007KT P6SM -RA OVC020
     FM042300 03007KT P6SM VCSH OVC020=

USA.gov is the U.S. government's official web portal to all federal, state and local government web resources and services.